Palito Blanco, Texas
Current Conditions -  °F | °C
As of 10:53 AM on Sunday 23 Nov 2014 (Local Time) from KALI Reporting Station
Clear Clear  
Wind Chill: 75°   Ceiling: Unl
Heat Index: 75°   Visibility: 10mi
Dew Point: 57°   Wind: 10mph
Humidity: 53%   Direction: 220°SW
Pressure: 29.72"   Gusts: NA
Location:  27.6821°N, 98.1034°W
Report Text: KALI 231653Z AUTO 22009KT 10SM CLR 24/14 A2972 RMK AO2 SLP062 T02390139
Loading
Personal Weather Stations






























Interactive Weather Map New forecast layout! Learn more

10-Day Weather Forecast

Advertisements
Track Severe Weather on mobile